Time;durP1;ratioP1;P1;durP2;ratioP2;P2;SDS_P1;SDS_P2;PMS_P1;PMS_P2;Temp;Humidity;BMP_temperature;BMP_pressure;BME280_temperature;BME280_humidity;BME280_pressure;Samples;Min_cycle;Max_cycle;Signal;HPM_P1;HPM_P2
2022/11/22 00:00:08;;;;;;;11.90;4.23;;;-10.60;99.90;;;;;;5091050;28;20465;-76
2022/11/22 00:02:35;;;;;;;14.87;4.40;;;-12.30;99.90;;;;;;5087438;28;20215;-78
2022/11/22 00:05:02;;;;;;;14.07;4.23;;;-10.70;99.90;;;;;;5084596;28;20426;-78
2022/11/22 00:07:28;;;;;;;24.93;5.37;;;-11.20;99.90;;;;;;5088957;28;20426;-78
2022/11/22 00:09:54;;;;;;;13.57;3.33;;;-11.00;99.90;;;;;;5094190;28;20428;-75
2022/11/22 00:12:20;;;;;;;18.23;3.90;;;-11.60;99.90;;;;;;5099838;28;20427;-77
2022/11/22 00:14:45;;;;;;;13.67;3.87;;;-11.30;99.90;;;;;;5094027;28;20573;-75
2022/11/22 00:17:11;;;;;;;17.20;4.27;;;-11.50;99.90;;;;;;5099641;28;20191;-76
2022/11/22 00:19:38;;;;;;;13.97;4.93;;;-11.40;99.90;;;;;;5095770;28;20182;-76
2022/11/22 00:22:05;;;;;;;16.23;3.47;;;-10.70;99.90;;;;;;5092384;28;20188;-74
2022/11/22 00:24:31;;;;;;;15.50;4.60;;;-10.90;99.90;;;;;;5096194;28;20484;-79
2022/11/22 00:26:57;;;;;;;15.73;4.00;;;-11.00;99.90;;;;;;5095867;28;20763;-80
2022/11/22 00:29:22;;;;;;;14.93;4.30;;;-11.40;99.90;;;;;;5099631;28;20189;-79
2022/11/22 00:31:48;;;;;;;15.17;4.50;;;-11.00;99.90;;;;;;5099930;28;20210;-78
2022/11/22 00:34:14;;;;;;;29.13;5.83;;;-11.70;99.90;;;;;;5099938;28;20190;-78
2022/11/22 00:36:40;;;;;;;10.67;3.50;;;-10.70;99.90;;;;;;5099716;28;20182;-78
2022/11/22 00:39:05;;;;;;;21.00;4.70;;;-10.00;99.90;;;;;;5099445;28;20183;-78
2022/11/22 00:41:31;;;;;;;17.97;3.90;;;-10.60;99.90;;;;;;5099453;28;20192;-77
2022/11/22 00:43:57;;;;;;;14.00;4.23;;;-11.50;99.90;;;;;;5094486;28;20347;-76
2022/11/22 00:46:23;;;;;;;11.70;3.80;;;-11.50;99.90;;;;;;5094123;28;20191;-77
2022/11/22 00:48:48;;;;;;;12.87;3.97;;;-9.50;99.90;;;;;;5086639;28;20209;-76
2022/11/22 00:51:14;;;;;;;17.73;3.20;;;-9.00;99.90;;;;;;5093667;28;20962;-77
2022/11/22 00:53:40;;;;;;;13.30;3.57;;;-10.60;99.90;;;;;;5089964;28;20204;-78
2022/11/22 00:56:06;;;;;;;16.77;3.63;;;-11.00;99.90;;;;;;5099372;28;20275;-76
2022/11/22 00:58:31;;;;;;;10.03;3.60;;;-11.30;99.90;;;;;;5092346;28;20223;-78
2022/11/22 01:00:57;;;;;;;15.47;3.43;;;-11.80;99.90;;;;;;5090432;28;20209;-78
2022/11/22 01:03:23;;;;;;;20.87;5.97;;;-11.60;99.90;;;;;;5095316;28;20223;-76
2022/11/22 01:05:49;;;;;;;14.70;4.67;;;-11.60;99.90;;;;;;5094677;28;20619;-79
2022/11/22 01:08:15;;;;;;;8.57;3.17;;;-11.80;99.90;;;;;;5085617;28;20470;-79
2022/11/22 01:10:41;;;;;;;18.57;4.50;;;-12.70;99.90;;;;;;5097609;28;20176;-79
2022/11/22 01:13:06;;;;;;;14.63;3.77;;;-12.00;99.90;;;;;;5099470;28;20918;-78
2022/11/22 01:15:32;;;;;;;9.43;2.73;;;-11.10;99.90;;;;;;5094628;28;20178;-78
2022/11/22 01:17:58;;;;;;;20.70;4.20;;;-10.70;99.90;;;;;;5088676;28;20485;-79
2022/11/22 01:20:24;;;;;;;16.73;5.00;;;-11.20;99.90;;;;;;5086208;28;20237;-78
2022/11/22 01:22:50;;;;;;;13.73;2.70;;;-12.00;99.90;;;;;;5094507;28;20200;-80
2022/11/22 01:25:15;;;;;;;12.20;4.23;;;-11.20;99.90;;;;;;5098576;28;20469;-77
2022/11/22 01:27:41;;;;;;;15.37;3.57;;;-8.50;99.90;;;;;;5098603;28;20208;-77
2022/11/22 01:30:07;;;;;;;11.87;3.07;;;-10.70;99.90;;;;;;5090810;28;20180;-79
2022/11/22 01:32:33;;;;;;;15.20;4.97;;;-12.00;99.90;;;;;;5097031;28;20603;-78
2022/11/22 01:34:59;;;;;;;15.63;3.23;;;-13.30;99.90;;;;;;5089022;28;20517;-80
2022/11/22 01:37:25;;;;;;;15.87;4.50;;;-14.40;99.90;;;;;;5094173;28;20253;-79
2022/11/22 01:39:50;;;;;;;13.07;2.67;;;-11.90;99.90;;;;;;5098151;28;20175;-78
2022/11/22 01:42:16;;;;;;;10.03;2.63;;;-12.20;99.90;;;;;;5097930;28;20253;-77
2022/11/22 01:44:43;;;;;;;17.83;3.83;;;-12.30;99.90;;;;;;5091336;28;20184;-79
2022/11/22 01:47:13;;;;;;;11.17;3.07;;;-11.40;99.90;;;;;;5089018;28;20208;-78
2022/11/22 01:49:47;;;;;;;7.97;2.60;;;-11.30;99.90;;;;;;5090167;28;20429;-77
2022/11/22 01:52:19;;;;;;;22.33;3.13;;;-12.00;99.90;;;;;;5087686;28;20451;-77
2022/11/22 01:54:55;;;;;;;11.60;2.60;;;-11.60;99.90;;;;;;5083210;28;20420;-79
2022/11/22 01:57:27;;;;;;;9.47;3.93;;;-11.40;99.90;;;;;;5097419;28;20428;-77
2022/11/22 01:59:59;;;;;;;14.80;3.67;;;-11.20;99.90;;;;;;5093927;28;20430;-75
2022/11/22 02:02:25;;;;;;;11.00;2.73;;;-12.00;99.90;;;;;;5096818;28;20465;-76
2022/11/22 02:04:52;;;;;;;11.77;2.57;;;-11.20;99.90;;;;;;5091920;28;20433;-74
2022/11/22 02:07:57;;;;;;;9.67;2.27;;;-11.00;99.90;;;;;;5091702;28;20516;-76
2022/11/22 02:10:26;;;;;;;9.97;2.23;;;-10.50;99.90;;;;;;5087021;28;20895;-79
2022/11/22 02:12:54;;;;;;;7.73;2.23;;;-11.40;99.90;;;;;;5092109;28;20427;-77
2022/11/22 02:15:20;;;;;;;7.80;2.33;;;-11.40;99.90;;;;;;5090825;28;20435;-76
2022/11/22 02:17:46;;;;;;;9.23;3.20;;;-11.40;99.90;;;;;;5097440;28;20927;-78
2022/11/22 02:20:12;;;;;;;12.00;2.83;;;-11.00;99.90;;;;;;5097623;28;20207;-74
2022/11/22 02:23:11;;;;;;;9.07;2.33;;;-10.90;99.90;;;;;;5097437;28;20499;-78
2022/11/22 02:25:39;;;;;;;7.13;2.03;;;-10.90;99.90;;;;;;5092149;28;20215;-79
2022/11/22 02:28:06;;;;;;;7.70;3.70;;;-10.20;99.90;;;;;;5096511;28;20427;-77
2022/11/22 02:30:32;;;;;;;11.60;3.47;;;-11.60;99.90;;;;;;5091642;28;20424;-79
2022/11/22 02:32:57;;;;;;;6.67;2.57;;;-10.80;99.90;;;;;;5089115;28;20848;-77
2022/11/22 02:35:26;;;;;;;8.67;2.33;;;-11.30;99.90;;;;;;5085361;28;20586;-77
2022/11/22 02:37:57;;;;;;;12.33;2.00;;;-12.00;99.90;;;;;;5088262;28;20626;-79
2022/11/22 02:40:24;;;;;;;7.43;2.10;;;-10.50;99.90;;;;;;5086239;28;20425;-75
2022/11/22 02:43:01;;;;;;;14.87;1.93;;;-10.50;99.90;;;;;;5097177;28;20459;-78
2022/11/22 02:45:27;;;;;;;14.27;2.23;;;-10.90;99.90;;;;;;5093664;28;20416;-77
2022/11/22 02:47:53;;;;;;;6.73;1.73;;;-10.60;99.90;;;;;;5090729;28;20433;-78
2022/11/22 02:50:18;;;;;;;10.47;2.13;;;-10.10;99.90;;;;;;5087792;28;20447;-78
2022/11/22 02:52:44;;;;;;;6.77;1.53;;;-11.10;99.90;;;;;;5092415;28;20545;-78
2022/11/22 02:55:10;;;;;;;5.07;2.37;;;-11.00;99.90;;;;;;5085180;28;20184;-78
2022/11/22 02:57:35;;;;;;;11.97;3.67;;;-11.90;99.90;;;;;;5095847;28;20187;-78
2022/11/22 03:00:01;;;;;;;17.77;3.33;;;-11.70;99.90;;;;;;5096357;28;20243;-79
2022/11/22 03:02:27;;;;;;;5.37;2.07;;;-11.60;99.90;;;;;;5089717;28;20224;-78
2022/11/22 03:04:52;;;;;;;11.87;2.17;;;-12.60;99.90;;;;;;5093809;28;20178;-77
2022/11/22 03:07:18;;;;;;;7.00;2.27;;;-10.50;99.90;;;;;;5079956;28;20183;-78
2022/11/22 03:09:44;;;;;;;6.60;1.83;;;-11.80;99.90;;;;;;5090758;28;20175;-76
2022/11/22 03:12:10;;;;;;;6.77;1.90;;;-11.80;99.90;;;;;;5097047;28;20176;-79
2022/11/22 03:14:35;;;;;;;6.97;2.63;;;-11.50;99.90;;;;;;5096780;28;20265;-77
2022/11/22 03:17:01;;;;;;;7.97;2.63;;;-10.80;99.90;;;;;;5094382;28;20262;-78
2022/11/22 03:19:27;;;;;;;5.60;2.17;;;-11.30;99.90;;;;;;5095286;28;20187;-77
2022/11/22 03:21:52;;;;;;;11.67;2.03;;;-10.80;99.90;;;;;;5091870;28;20200;-78
2022/11/22 03:24:19;;;;;;;9.63;2.10;;;-9.50;99.90;;;;;;5083438;28;20386;-78
2022/11/22 03:26:48;;;;;;;5.77;1.80;;;-12.10;99.90;;;;;;5093846;28;20258;-78
2022/11/22 03:29:15;;;;;;;3.20;2.17;;;-11.60;99.90;;;;;;5096001;28;20442;-78
2022/11/22 03:31:40;;;;;;;12.30;2.40;;;-12.30;99.90;;;;;;5090390;28;20423;-76
2022/11/22 03:34:06;;;;;;;17.30;2.27;;;-11.20;99.90;;;;;;5087343;28;20863;-74
2022/11/22 03:36:32;;;;;;;9.93;1.83;;;-11.50;99.90;;;;;;5096007;28;20187;-80
2022/11/22 03:38:58;;;;;;;6.97;1.70;;;-10.90;99.90;;;;;;5083822;28;20201;-76
2022/11/22 03:41:24;;;;;;;31.10;2.67;;;-10.80;99.90;;;;;;5084078;28;20187;-78
2022/11/22 03:43:50;;;;;;;10.93;2.93;;;-10.70;99.90;;;;;;5083952;28;20458;-76
2022/11/22 03:46:18;;;;;;;8.07;2.40;;;-10.00;99.90;;;;;;5092101;28;20214;-76
2022/11/22 03:48:44;;;;;;;9.57;1.90;;;-9.60;99.90;;;;;;5095951;28;20612;-77
2022/11/22 03:51:10;;;;;;;5.50;2.40;;;-9.70;99.90;;;;;;5087447;28;20426;-78
2022/11/22 03:53:36;;;;;;;9.43;2.53;;;-10.10;99.90;;;;;;5099510;28;20449;-76
2022/11/22 03:56:02;;;;;;;12.10;2.60;;;-9.60;99.90;;;;;;5089067;28;20657;-77
2022/11/22 03:58:28;;;;;;;12.50;2.40;;;-10.20;99.90;;;;;;5091641;28;20468;-77
2022/11/22 04:00:56;;;;;;;9.37;3.13;;;-11.30;99.90;;;;;;5094748;28;20435;-78
2022/11/22 04:03:21;;;;;;;7.13;2.17;;;-12.80;99.90;;;;;;5088990;28;20239;-77
2022/11/22 04:05:48;;;;;;;8.60;1.80;;;-11.30;99.90;;;;;;5096645;28;20453;-78
2022/11/22 04:08:14;;;;;;;12.27;3.47;;;-10.30;99.90;;;;;;5095704;28;20868;-77
2022/11/22 04:10:40;;;;;;;11.97;2.33;;;-10.80;99.90;;;;;;5096472;28;20578;-77
2022/11/22 04:13:06;;;;;;;10.87;2.23;;;-10.30;99.90;;;;;;5096032;28;20197;-77
2022/11/22 04:15:32;;;;;;;3.83;1.63;;;-10.10;99.90;;;;;;5096157;28;20187;-77
2022/11/22 04:17:57;;;;;;;10.23;2.13;;;-9.90;99.90;;;;;;5096273;28;20182;-77
2022/11/22 04:23:13;;;;;;;7.60;2.13;;;-10.30;99.90;;;;;;5092608;28;20224;-78
2022/11/22 04:25:41;;;;;;;6.63;2.00;;;-8.70;99.90;;;;;;5089148;28;20435;-77
2022/11/22 04:28:08;;;;;;;19.23;2.40;;;-11.60;99.90;;;;;;5089300;28;20471;-77
2022/11/22 04:33:19;;;;;;;7.63;3.50;;;-11.60;99.90;;;;;;5085319;28;20510;-77
2022/11/22 04:35:45;;;;;;;13.67;2.40;;;-10.60;99.90;;;;;;5092987;28;20422;-77
2022/11/22 04:38:12;;;;;;;5.30;1.87;;;-9.90;99.90;;;;;;5088796;28;21383;-76
2022/11/22 04:40:38;;;;;;;5.13;1.47;;;-10.50;99.90;;;;;;5093388;28;20483;-74
2022/11/22 04:45:50;;;;;;;12.57;3.17;;;-12.00;99.90;;;;;;5096309;28;20418;-77
2022/11/22 04:48:17;;;;;;;7.60;2.00;;;-10.70;99.90;;;;;;5096019;28;20424;-78
2022/11/22 04:53:29;;;;;;;9.17;2.50;;;-9.80;99.90;;;;;;5087669;28;20503;-78
2022/11/22 04:55:55;;;;;;;6.07;2.20;;;-10.00;99.90;;;;;;5091217;28;20437;-79
2022/11/22 04:58:21;;;;;;;13.07;2.63;;;-10.20;99.90;;;;;;5100633;28;20431;-78
2022/11/22 05:00:48;;;;;;;17.13;4.83;;;-10.60;99.90;;;;;;5103787;28;20744;-78
2022/11/22 05:03:14;;;;;;;6.77;2.23;;;-12.10;99.90;;;;;;5100020;28;20463;-75
2022/11/22 05:05:42;;;;;;;9.23;3.80;;;-12.00;99.90;;;;;;5093140;28;20525;-75
2022/11/22 05:08:08;;;;;;;9.63;1.73;;;-11.40;99.90;;;;;;5098842;28;20788;-78
2022/11/22 05:13:41;;;;;;;12.07;3.40;;;-11.30;99.90;;;;;;5100026;28;20475;-79
2022/11/22 05:16:09;;;;;;;6.07;2.30;;;-11.40;99.90;;;;;;5100100;28;20430;-77
2022/11/22 05:18:35;;;;;;;5.47;2.50;;;-11.60;99.90;;;;;;5088395;28;20432;-79
2022/11/22 05:21:09;;;;;;;10.40;3.17;;;-11.60;99.90;;;;;;5090160;28;20430;-77
2022/11/22 05:23:54;;;;;;;11.13;3.23;;;-11.40;99.90;;;;;;5098512;28;20469;-81
2022/11/22 05:26:31;;;;;;;8.63;3.13;;;-8.70;99.90;;;;;;5085190;28;20418;-79
2022/11/22 05:28:58;;;;;;;7.03;3.37;;;-11.40;99.90;;;;;;5087668;28;20449;-77
2022/11/22 05:31:26;;;;;;;7.70;2.40;;;-11.10;99.90;;;;;;5084097;28;20776;-79
2022/11/22 05:33:54;;;;;;;15.10;3.93;;;-10.60;99.90;;;;;;5092185;28;20432;-77
2022/11/22 05:36:20;;;;;;;12.17;2.63;;;-10.00;99.90;;;;;;5098220;28;20948;-78
2022/11/22 05:38:47;;;;;;;7.00;2.67;;;-9.50;99.90;;;;;;5094339;28;20510;-78
2022/11/22 05:41:14;;;;;;;15.23;2.50;;;-10.50;99.90;;;;;;5098957;28;20768;-78
2022/11/22 05:43:40;;;;;;;4.20;2.43;;;-10.90;99.90;;;;;;5102144;28;20475;-76
2022/11/22 05:46:06;;;;;;;5.23;2.00;;;-11.40;99.90;;;;;;5093901;28;20423;-78
2022/11/22 05:48:32;;;;;;;9.73;3.13;;;-10.60;99.90;;;;;;5098074;28;20422;-78
2022/11/22 05:50:57;;;;;;;7.43;2.70;;;-10.10;99.90;;;;;;5097807;28;20178;-78
2022/11/22 05:53:24;;;;;;;3.80;1.93;;;-9.80;99.90;;;;;;5097539;28;20207;-77
2022/11/22 05:55:50;;;;;;;4.50;2.07;;;-9.80;99.90;;;;;;5098065;28;20182;-79
2022/11/22 05:58:16;;;;;;;3.97;1.63;;;-11.40;99.90;;;;;;5097909;28;20429;-78
2022/11/22 06:00:42;;;;;;;3.80;1.87;;;-13.50;99.90;;;;;;5100219;28;20183;-76
2022/11/22 06:03:10;;;;;;;6.63;1.87;;;-12.70;99.90;;;;;;5090169;28;20651;-77
2022/11/22 06:05:37;;;;;;;6.67;2.00;;;-12.90;99.90;;;;;;5083316;28;20432;-77
2022/11/22 06:08:03;;;;;;;7.20;2.80;;;-13.20;99.90;;;;;;5090867;28;20427;-75
2022/11/22 06:10:28;;;;;;;6.33;2.13;;;-14.50;99.90;;;;;;5092175;28;20495;-77
2022/11/22 06:12:54;;;;;;;9.67;2.43;;;-13.30;99.90;;;;;;5094997;28;21226;-78
2022/11/22 06:15:21;;;;;;;4.40;2.83;;;-14.70;99.90;;;;;;5097516;28;20208;-77
2022/11/22 06:17:47;;;;;;;9.17;2.90;;;-15.60;99.90;;;;;;5088887;28;20586;-77
2022/11/22 06:20:16;;;;;;;4.23;1.80;;;-14.80;99.90;;;;;;5089036;28;20424;-78
2022/11/22 06:22:42;;;;;;;6.37;2.23;;;-15.40;99.90;;;;;;5089287;28;20208;-78
2022/11/22 06:25:09;;;;;;;7.90;2.73;;;-15.60;99.90;;;;;;5095670;28;20440;-76
2022/11/22 06:27:35;;;;;;;3.73;2.17;;;-14.60;99.90;;;;;;5091564;28;20203;-78
2022/11/22 06:30:00;;;;;;;9.43;2.47;;;-13.80;99.90;;;;;;5092453;28;20522;-79
2022/11/22 06:32:28;;;;;;;8.93;2.00;;;-14.10;99.90;;;;;;5096687;28;20184;-78
2022/11/22 06:34:54;;;;;;;12.20;2.50;;;-12.20;99.90;;;;;;5103109;28;20178;-78
2022/11/22 06:37:19;;;;;;;6.53;1.80;;;-13.70;99.90;;;;;;5083998;28;20898;-79
2022/11/22 06:39:45;;;;;;;7.60;2.37;;;-14.00;99.90;;;;;;5095188;28;20168;-76
2022/11/22 06:42:11;;;;;;;7.83;2.20;;;-14.10;99.90;;;;;;5091174;28;20192;-76
2022/11/22 06:44:37;;;;;;;9.10;2.77;;;-13.50;99.90;;;;;;5096866;28;20193;-78
2022/11/22 06:47:02;;;;;;;5.83;2.10;;;-14.00;99.90;;;;;;5097347;28;20354;-78
2022/11/22 06:49:28;;;;;;;9.43;3.00;;;-13.70;99.90;;;;;;5085131;28;20178;-75
2022/11/22 06:51:55;;;;;;;8.77;2.00;;;-13.20;99.90;;;;;;5091262;28;20220;-75
2022/11/22 06:54:20;;;;;;;9.53;3.50;;;-13.80;99.90;;;;;;5086337;28;20177;-73
2022/11/22 06:56:46;;;;;;;7.17;3.03;;;-14.90;99.90;;;;;;5086622;28;20772;-74
2022/11/22 06:59:12;;;;;;;4.57;1.90;;;-14.60;99.90;;;;;;5099800;28;20186;-72
2022/11/22 07:01:38;;;;;;;3.17;1.70;;;-13.70;99.90;;;;;;5101354;28;20185;-74
2022/11/22 07:04:04;;;;;;;11.90;4.23;;;-14.70;99.90;;;;;;5090583;28;20216;-73
2022/11/22 07:06:33;;;;;;;5.50;2.13;;;-15.00;99.90;;;;;;5089391;28;20174;-73
2022/11/22 07:09:00;;;;;;;5.27;2.00;;;-14.00;99.90;;;;;;5085619;28;20428;-74
2022/11/22 07:11:28;;;;;;;4.97;1.67;;;-13.70;99.90;;;;;;5088261;28;20518;-72
2022/11/22 07:13:56;;;;;;;6.50;2.83;;;-13.40;99.90;;;;;;5082253;28;20429;-73
2022/11/22 07:16:22;;;;;;;4.90;2.50;;;-15.90;99.90;;;;;;5092541;28;20469;-73
2022/11/22 07:18:48;;;;;;;4.33;1.87;;;-15.90;99.90;;;;;;5088221;28;20509;-73
2022/11/22 07:21:22;;;;;;;4.23;2.30;;;-16.40;99.90;;;;;;5095732;28;20481;-73
2022/11/22 07:23:50;;;;;;;4.20;2.10;;;-14.40;99.90;;;;;;5091597;28;20467;-75
2022/11/22 07:26:17;;;;;;;5.47;2.23;;;-13.70;99.90;;;;;;5094536;28;20818;-74
2022/11/22 07:28:44;;;;;;;7.90;3.40;;;-13.90;99.90;;;;;;5094506;28;20452;-74
2022/11/22 07:31:12;;;;;;;4.63;2.20;;;-13.00;99.90;;;;;;5094571;28;20740;-75
2022/11/22 07:33:38;;;;;;;6.30;2.53;;;-12.70;99.90;;;;;;5094721;28;20479;-72
2022/11/22 07:36:13;;;;;;;7.77;2.50;;;-12.60;99.90;;;;;;5090705;28;20427;-72
2022/11/22 07:38:38;;;;;;;5.40;2.40;;;-13.20;99.90;;;;;;5094943;28;20890;-72
2022/11/22 07:41:06;;;;;;;4.97;2.83;;;-13.40;99.90;;;;;;5095130;28;20457;-76
2022/11/22 07:43:32;;;;;;;12.17;2.90;;;-14.40;99.90;;;;;;5094906;28;20200;-77
2022/11/22 07:46:03;;;;;;;10.33;2.80;;;-14.20;99.90;;;;;;5095946;28;20421;-75
2022/11/22 07:48:28;;;;;;;10.13;2.67;;;-13.00;99.90;;;;;;5095840;28;20511;-74
2022/11/22 07:50:54;;;;;;;9.67;2.70;;;-13.50;99.90;;;;;;5094528;28;20511;-72
2022/11/22 07:53:20;;;;;;;6.13;2.07;;;-13.80;99.90;;;;;;5084303;28;20236;-74
2022/11/22 07:55:46;;;;;;;6.73;3.30;;;-15.10;99.90;;;;;;5086467;28;20423;-75
2022/11/22 07:58:12;;;;;;;10.20;2.83;;;-14.70;99.90;;;;;;5083982;28;20536;-77
2022/11/22 08:00:38;;;;;;;5.27;2.47;;;-13.90;99.90;;;;;;5088774;28;20180;-77
2022/11/22 08:03:05;;;;;;;9.27;3.03;;;-12.10;99.90;;;;;;5088053;28;20220;-78
2022/11/22 08:05:31;;;;;;;13.83;2.20;;;-15.80;99.90;;;;;;5095887;28;20174;-72
2022/11/22 08:07:57;;;;;;;9.80;2.80;;;-14.80;99.90;;;;;;5087675;28;20916;-72
2022/11/22 08:10:22;;;;;;;4.67;2.03;;;-14.60;99.90;;;;;;5088554;28;20182;-71
2022/11/22 08:12:48;;;;;;;7.43;2.67;;;-16.70;99.90;;;;;;5089979;28;20179;-72
2022/11/22 08:15:15;;;;;;;11.80;2.20;;;-16.20;99.90;;;;;;5087627;28;20190;-72
2022/11/22 08:17:41;;;;;;;6.50;2.17;;;-15.70;99.90;;;;;;5087160;28;20178;-71
2022/11/22 08:20:08;;;;;;;7.17;2.93;;;-15.90;99.90;;;;;;5095603;28;20192;-78
2022/11/22 08:22:35;;;;;;;7.60;1.77;;;-16.40;99.90;;;;;;5095548;28;20219;-77
2022/11/22 08:25:01;;;;;;;4.93;1.97;;;-16.60;99.90;;;;;;5088842;28;20193;-75
2022/11/22 08:27:27;;;;;;;12.63;3.47;;;-14.90;99.90;;;;;;5090953;28;20194;-74
2022/11/22 08:29:53;;;;;;;4.53;2.80;;;-14.50;99.90;;;;;;5079078;28;20432;-78
2022/11/22 08:32:19;;;;;;;4.33;1.83;;;-16.80;99.90;;;;;;5093886;28;20235;-75
2022/11/22 08:34:45;;;;;;;7.03;2.10;;;-16.70;99.90;;;;;;5098208;28;20179;-78
2022/11/22 08:37:10;;;;;;;4.50;3.57;;;-16.20;99.90;;;;;;5099104;28;20512;-74
2022/11/22 08:39:36;;;;;;;6.73;2.67;;;-16.10;99.90;;;;;;5098292;28;20189;-77
2022/11/22 08:42:02;;;;;;;4.57;1.70;;;-15.90;99.90;;;;;;5093251;28;20256;-74
2022/11/22 08:44:27;;;;;;;9.13;2.00;;;-16.20;99.90;;;;;;5098871;28;20198;-73
2022/11/22 08:46:53;;;;;;;5.33;2.07;;;-15.50;99.90;;;;;;5087403;28;20187;-72
2022/11/22 08:49:19;;;;;;;5.73;2.30;;;-16.50;99.90;;;;;;5097745;28;20542;-74
2022/11/22 08:51:45;;;;;;;2.77;2.50;;;-15.60;99.90;;;;;;5098783;28;20212;-76
2022/11/22 08:54:12;;;;;;;7.20;2.20;;;-15.40;99.90;;;;;;5096040;28;20202;-75
2022/11/22 08:56:38;;;;;;;4.23;2.10;;;-15.80;99.90;;;;;;5093800;28;20186;-77
2022/11/22 08:59:03;;;;;;;4.53;2.57;;;-14.60;99.90;;;;;;5095487;28;20528;-76
2022/11/22 09:01:29;;;;;;;8.27;2.37;;;-14.80;99.90;;;;;;5089848;28;20185;-77
2022/11/22 09:03:55;;;;;;;6.03;1.83;;;-14.80;99.90;;;;;;5088558;28;20198;-75
2022/11/22 09:06:21;;;;;;;12.70;6.40;;;-15.20;99.90;;;;;;5083441;28;20187;-76
2022/11/22 09:08:46;;;;;;;9.97;3.67;;;-15.30;99.90;;;;;;5093455;28;20227;-76
2022/11/22 09:11:16;;;;;;;14.97;3.70;;;-16.10;99.90;;;;;;5093060;28;20175;-76
2022/11/22 09:13:41;;;;;;;8.43;3.70;;;-14.50;99.90;;;;;;5098503;28;20234;-76
2022/11/22 09:16:10;;;;;;;4.83;2.30;;;-14.00;99.90;;;;;;5093926;28;20586;-73
2022/11/22 09:18:37;;;;;;;5.37;2.60;;;-13.80;99.90;;;;;;5092563;28;20815;-74
2022/11/22 09:21:09;;;;;;;19.83;11.17;;;-14.50;99.90;;;;;;5098656;28;20431;-77
2022/11/22 09:23:36;;;;;;;9.83;7.13;;;-13.60;99.90;;;;;;5098480;28;20229;-72
2022/11/22 09:26:05;;;;;;;8.33;4.87;;;-14.60;99.90;;;;;;5092839;28;20255;-76
2022/11/22 09:28:31;;;;;;;14.03;10.03;;;-13.60;99.90;;;;;;5092808;28;20469;-75
2022/11/22 09:31:08;;;;;;;4.23;3.80;;;-13.60;99.90;;;;;;5098634;28;20175;-75
2022/11/22 09:33:37;;;;;;;5.80;3.70;;;-12.60;99.90;;;;;;5098360;28;20243;-75
2022/11/22 09:36:20;;;;;;;7.93;7.13;;;-13.00;99.90;;;;;;5096839;28;20182;-74
2022/11/22 09:38:47;;;;;;;3.87;2.87;;;-12.50;99.90;;;;;;5098289;28;20179;-79
2022/11/22 09:41:16;;;;;;;4.10;2.93;;;-13.30;99.90;;;;;;5097509;28;20186;-76
2022/11/22 09:44:20;;;;;;;7.07;6.40;;;-12.00;99.90;;;;;;5091705;28;20556;-77
2022/11/22 09:46:55;;;;;;;9.60;4.13;;;-12.00;99.90;;;;;;5085891;28;20199;-75
2022/11/22 09:49:51;;;;;;;7.57;3.10;;;-11.80;99.90;;;;;;5086035;28;20411;-75
2022/11/22 09:52:28;;;;;;;3.20;2.60;;;-12.20;99.90;;;;;;5089513;28;20232;-78
2022/11/22 09:55:03;;;;;;;4.87;2.37;;;-13.00;99.90;;;;;;5092164;28;20185;-75
2022/11/22 09:57:46;;;;;;;3.63;1.97;;;-13.60;99.90;;;;;;5096646;28;20187;-75
2022/11/22 10:00:19;;;;;;;3.27;1.10;;;-13.10;99.90;;;;;;5086063;28;20182;-78
2022/11/22 10:03:03;;;;;;;5.57;3.17;;;-13.50;99.90;;;;;;5097399;28;20206;-75
2022/11/22 10:05:50;;;;;;;3.90;2.93;;;-13.90;99.90;;;;;;5092435;28;20171;-76
2022/11/22 10:08:24;;;;;;;6.00;2.63;;;-15.00;99.90;;;;;;5083041;28;20222;-78
2022/11/22 10:10:52;;;;;;;2.57;1.87;;;-14.60;99.90;;;;;;5086342;28;20182;-76
2022/11/22 10:13:34;;;;;;;5.13;3.40;;;-13.60;99.90;;;;;;5097535;28;20236;-76
2022/11/22 10:16:29;;;;;;;2.87;2.40;;;-14.60;99.90;;;;;;5089436;28;20205;-76
2022/11/22 10:19:09;;;;;;;2.23;1.63;;;-13.80;99.90;;;;;;5089372;28;20191;-77
2022/11/22 10:21:34;;;;;;;3.80;2.00;;;-16.50;99.90;;;;;;5085929;28;20179;-71
2022/11/22 10:24:00;;;;;;;9.90;9.10;;;-14.00;99.90;;;;;;5088555;28;20284;-72
2022/11/22 10:26:31;;;;;;;3.07;2.87;;;-14.90;99.90;;;;;;5092732;28;20163;-71
2022/11/22 10:29:23;;;;;;;5.83;3.77;;;-14.90;99.90;;;;;;5097005;28;20254;-73
2022/11/22 10:32:00;;;;;;;2.27;2.17;;;-15.20;99.90;;;;;;5093219;28;20223;-73
2022/11/22 10:34:26;;;;;;;3.03;1.73;;;-16.40;99.90;;;;;;5093135;28;20232;-72
2022/11/22 10:37:16;;;;;;;2.17;1.23;;;-15.40;99.90;;;;;;5090035;28;20179;-73
2022/11/22 10:40:00;;;;;;;3.30;3.10;;;-17.80;99.90;;;;;;5087699;28;20179;-73
2022/11/22 10:42:51;;;;;;;1.00;0.80;;;-16.00;99.90;;;;;;5097080;28;20189;-76
2022/11/22 10:45:16;;;;;;;4.00;3.70;;;-16.40;99.90;;;;;;5093688;28;20180;-74
2022/11/22 10:47:51;;;;;;;1.53;1.43;;;-14.50;99.90;;;;;;5090629;28;20197;-75
2022/11/22 10:50:33;;;;;;;16.13;10.67;;;-14.50;99.90;;;;;;5081126;28;20586;-76
2022/11/22 10:53:14;;;;;;;5.53;3.73;;;-13.20;99.90;;;;;;5095979;28;20208;-74
2022/11/22 10:55:56;;;;;;;2.23;0.97;;;-12.40;99.90;;;;;;5085109;28;20183;-76
2022/11/22 10:58:49;;;;;;;1.60;0.90;;;-14.30;99.90;;;;;;5078382;28;20209;-75
2022/11/22 11:01:36;;;;;;;1.47;1.10;;;-14.60;99.90;;;;;;5089429;28;20181;-73
2022/11/22 11:04:04;;;;;;;2.60;1.37;;;-14.00;99.90;;;;;;5093815;28;20203;-73
2022/11/22 11:06:39;;;;;;;1.60;1.33;;;-13.30;99.90;;;;;;5091684;28;20170;-75
2022/11/22 11:09:11;;;;;;;6.93;1.43;;;-11.30;99.90;;;;;;5094525;28;20175;-75
2022/11/22 11:11:40;;;;;;;3.87;3.10;;;-12.20;99.90;;;;;;5091978;28;20238;-74
2022/11/22 11:14:18;;;;;;;2.90;1.70;;;-10.80;99.90;;;;;;5091717;28;20183;-75
2022/11/22 11:16:45;;;;;;;3.20;1.27;;;-11.80;99.90;;;;;;5077933;28;20175;-75
2022/11/22 11:19:17;;;;;;;1.60;1.50;;;-11.30;99.90;;;;;;5088571;28;20189;-76
2022/11/22 11:21:42;;;;;;;1.10;1.00;;;-11.40;99.90;;;;;;5092669;28;20190;-75
2022/11/22 11:24:18;;;;;;;1.83;1.73;;;-12.00;99.90;;;;;;5096380;28;20207;-74
2022/11/22 11:26:52;;;;;;;1.90;1.80;;;-10.30;99.90;;;;;;5096594;28;20261;-77
2022/11/22 11:29:18;;;;;;;1.60;1.33;;;-10.90;99.90;;;;;;5096336;28;20236;-74
2022/11/22 11:31:46;;;;;;;1.80;1.20;;;-11.00;99.90;;;;;;5096133;28;20191;-77
2022/11/22 11:34:30;;;;;;;2.23;1.33;;;-9.80;99.90;;;;;;5092208;28;20240;-74
2022/11/22 11:36:57;;;;;;;0.97;0.60;;;-10.40;99.90;;;;;;5086883;28;20210;-77
2022/11/22 11:39:28;;;;;;;1.90;1.23;;;-10.20;99.90;;;;;;5082964;28;20206;-77
2022/11/22 11:41:54;;;;;;;3.17;1.83;;;-11.10;99.90;;;;;;5089380;28;20218;-76
2022/11/22 11:44:34;;;;;;;5.50;2.27;;;-12.30;99.90;;;;;;5084211;28;20202;-75
2022/11/22 11:47:01;;;;;;;4.90;2.83;;;-13.40;99.90;;;;;;5096221;28;20174;-77
2022/11/22 11:49:30;;;;;;;5.47;3.33;;;-13.20;99.90;;;;;;5095875;28;20198;-78
2022/11/22 11:52:05;;;;;;;12.10;6.77;;;-11.70;99.90;;;;;;5085530;28;20181;-77
2022/11/22 11:54:45;;;;;;;5.00;3.03;;;-11.70;99.90;;;;;;5085998;28;20180;-78
2022/11/22 11:57:42;;;;;;;1.27;0.97;;;-12.10;99.90;;;;;;5087100;28;20219;-76
2022/11/22 12:00:25;;;;;;;1.10;0.90;;;-11.60;99.90;;;;;;5070413;28;20216;-77
2022/11/22 12:02:57;;;;;;;2.87;0.50;;;-11.20;99.90;;;;;;5092272;28;20288;-77
2022/11/22 12:05:31;;;;;;;1.03;0.63;;;-15.80;99.90;;;;;;5095946;28;20630;-77
2022/11/22 12:07:58;;;;;;;2.87;1.20;;;-13.30;99.90;;;;;;5091538;28;20178;-77
2022/11/22 12:10:46;;;;;;;2.47;1.07;;;-12.80;99.90;;;;;;5090795;28;20178;-76
2022/11/22 12:13:30;;;;;;;1.20;0.60;;;-11.70;99.90;;;;;;5081636;28;20172;-78
2022/11/22 12:16:04;;;;;;;1.10;1.00;;;-15.80;99.90;;;;;;5086732;28;20175;-75
2022/11/22 12:18:51;;;;;;;3.90;1.97;;;-13.40;99.90;;;;;;5095274;28;20191;-75
2022/11/22 12:21:40;;;;;;;0.80;0.70;;;-13.70;99.90;;;;;;5095286;28;20208;-74
2022/11/22 12:24:40;;;;;;;0.90;0.90;;;-14.50;99.90;;;;;;5091965;28;20213;-74
2022/11/22 12:27:10;;;;;;;0.90;0.80;;;-13.50;99.90;;;;;;5076435;28;20218;-75
2022/11/22 12:29:39;;;;;;;1.37;0.73;;;-13.80;99.90;;;;;;5093935;28;20177;-76
2022/11/22 12:32:21;;;;;;;3.30;1.10;;;-16.70;99.90;;;;;;5095564;28;20183;-78
2022/11/22 12:34:59;;;;;;;2.10;0.60;;;-13.10;99.90;;;;;;5089943;28;20570;-75
2022/11/22 12:37:42;;;;;;;2.37;0.87;;;-12.70;99.90;;;;;;5090130;28;20188;-76
2022/11/22 12:40:19;;;;;;;3.40;1.47;;;-12.30;99.90;;;;;;5092093;28;20181;-73
2022/11/22 12:42:54;;;;;;;0.70;0.70;;;-12.30;99.90;;;;;;5085739;28;20175;-76
2022/11/22 12:45:51;;;;;;;0.70;0.70;;;-11.30;99.90;;;;;;5076852;28;20547;-76
2022/11/22 12:48:46;;;;;;;1.03;0.50;;;-11.00;99.90;;;;;;5079350;28;20300;-77
2022/11/22 12:51:36;;;;;;;3.10;0.70;;;-11.70;99.90;;;;;;5083182;28;20184;-77
2022/11/22 12:54:07;;;;;;;0.57;0.50;;;-11.20;99.90;;;;;;5095376;28;20709;-77
2022/11/22 12:56:51;;;;;;;0.87;0.87;;;-12.30;99.90;;;;;;5095336;28;20174;-76
2022/11/22 12:59:39;;;;;;;0.90;0.90;;;-11.80;99.90;;;;;;5094032;28;20174;-76